sensor_id;sensor_type;location;lat;lon;timestamp;P1;durP1;ratioP1;P2;durP2;ratioP2
67278;SDS011;54193;53.746;10.058;2022-10-16T00:01:28;16.30;;;6.72;;
67278;SDS011;54193;53.746;10.058;2022-10-16T00:04:15;14.95;;;6.28;;
67278;SDS011;54193;53.746;10.058;2022-10-16T00:07:00;14.43;;;6.47;;
67278;SDS011;54193;53.746;10.058;2022-10-16T00:09:47;15.13;;;6.50;;
67278;SDS011;54193;53.746;10.058;2022-10-16T00:12:32;13.50;;;6.13;;
67278;SDS011;54193;53.746;10.058;2022-10-16T00:15:18;15.07;;;6.60;;
67278;SDS011;54193;53.746;10.058;2022-10-16T00:18:04;17.52;;;6.68;;
67278;SDS011;54193;53.746;10.058;2022-10-16T00:20:50;15.87;;;6.20;;
67278;SDS011;54193;53.746;10.058;2022-10-16T00:23:37;14.48;;;6.38;;
67278;SDS011;54193;53.746;10.058;2022-10-16T00:26:23;16.05;;;6.75;;
67278;SDS011;54193;53.746;10.058;2022-10-16T00:29:09;14.98;;;6.53;;
67278;SDS011;54193;53.746;10.058;2022-10-16T00:31:54;18.35;;;6.88;;
67278;SDS011;54193;53.746;10.058;2022-10-16T00:34:40;16.57;;;6.80;;
67278;SDS011;54193;53.746;10.058;2022-10-16T00:37:25;15.68;;;6.45;;
67278;SDS011;54193;53.746;10.058;2022-10-16T00:40:11;15.95;;;6.90;;
67278;SDS011;54193;53.746;10.058;2022-10-16T00:42:57;15.32;;;6.53;;
67278;SDS011;54193;53.746;10.058;2022-10-16T00:45:43;13.40;;;6.13;;
67278;SDS011;54193;53.746;10.058;2022-10-16T00:48:28;15.73;;;5.97;;
67278;SDS011;54193;53.746;10.058;2022-10-16T00:51:15;12.73;;;5.25;;
67278;SDS011;54193;53.746;10.058;2022-10-16T00:54:06;11.63;;;5.35;;
67278;SDS011;54193;53.746;10.058;2022-10-16T00:56:54;10.00;;;4.43;;
67278;SDS011;54193;53.746;10.058;2022-10-16T00:59:43;13.18;;;5.18;;
67278;SDS011;54193;53.746;10.058;2022-10-16T01:02:28;10.60;;;4.40;;
67278;SDS011;54193;53.746;10.058;2022-10-16T01:05:14;9.55;;;4.10;;
67278;SDS011;54193;53.746;10.058;2022-10-16T01:10:57;9.73;;;3.45;;
67278;SDS011;54193;53.746;10.058;2022-10-16T01:13:53;10.98;;;4.00;;
67278;SDS011;54193;53.746;10.058;2022-10-16T01:16:43;8.10;;;3.53;;
67278;SDS011;54193;53.746;10.058;2022-10-16T01:19:51;8.85;;;2.97;;
67278;SDS011;54193;53.746;10.058;2022-10-16T01:35:48;10.05;;;3.05;;
67278;SDS011;54193;53.746;10.058;2022-10-16T01:38:40;9.77;;;2.90;;
67278;SDS011;54193;53.746;10.058;2022-10-16T01:41:30;7.75;;;2.72;;
67278;SDS011;54193;53.746;10.058;2022-10-16T01:44:19;8.15;;;2.50;;
67278;SDS011;54193;53.746;10.058;2022-10-16T01:47:10;5.67;;;2.63;;
67278;SDS011;54193;53.746;10.058;2022-10-16T01:49:58;5.55;;;2.50;;
67278;SDS011;54193;53.746;10.058;2022-10-16T01:52:48;7.75;;;2.90;;
67278;SDS011;54193;53.746;10.058;2022-10-16T01:55:37;8.07;;;2.63;;
67278;SDS011;54193;53.746;10.058;2022-10-16T01:58:30;7.22;;;2.75;;
67278;SDS011;54193;53.746;10.058;2022-10-16T02:01:20;6.40;;;2.40;;
67278;SDS011;54193;53.746;10.058;2022-10-16T02:04:27;5.80;;;2.70;;
67278;SDS011;54193;53.746;10.058;2022-10-16T02:07:17;7.03;;;2.70;;
67278;SDS011;54193;53.746;10.058;2022-10-16T02:10:02;7.05;;;2.72;;
67278;SDS011;54193;53.746;10.058;2022-10-16T02:13:01;6.93;;;2.60;;
67278;SDS011;54193;53.746;10.058;2022-10-16T02:16:06;6.53;;;2.60;;
67278;SDS011;54193;53.746;10.058;2022-10-16T02:18:52;6.32;;;2.70;;
67278;SDS011;54193;53.746;10.058;2022-10-16T02:24:43;6.88;;;2.70;;
67278;SDS011;54193;53.746;10.058;2022-10-16T02:27:52;10.40;;;3.00;;
67278;SDS011;54193;53.746;10.058;2022-10-16T02:30:45;7.87;;;2.73;;
67278;SDS011;54193;53.746;10.058;2022-10-16T02:33:34;5.78;;;2.42;;
67278;SDS011;54193;53.746;10.058;2022-10-16T02:36:21;6.57;;;2.65;;
67278;SDS011;54193;53.746;10.058;2022-10-16T02:39:07;10.05;;;2.78;;
67278;SDS011;54193;53.746;10.058;2022-10-16T02:41:53;7.03;;;2.75;;
67278;SDS011;54193;53.746;10.058;2022-10-16T02:44:39;5.67;;;2.30;;
67278;SDS011;54193;53.746;10.058;2022-10-16T02:47:25;8.48;;;2.60;;
67278;SDS011;54193;53.746;10.058;2022-10-16T02:50:10;5.78;;;1.75;;
67278;SDS011;54193;53.746;10.058;2022-10-16T02:52:56;5.10;;;2.45;;
67278;SDS011;54193;53.746;10.058;2022-10-16T02:55:42;5.03;;;2.30;;
67278;SDS011;54193;53.746;10.058;2022-10-16T02:58:27;6.73;;;2.30;;
67278;SDS011;54193;53.746;10.058;2022-10-16T03:01:13;4.47;;;2.15;;
67278;SDS011;54193;53.746;10.058;2022-10-16T03:03:59;5.53;;;2.10;;
67278;SDS011;54193;53.746;10.058;2022-10-16T03:06:45;6.78;;;2.03;;
67278;SDS011;54193;53.746;10.058;2022-10-16T03:09:30;4.97;;;2.10;;
67278;SDS011;54193;53.746;10.058;2022-10-16T03:12:16;7.17;;;2.20;;
67278;SDS011;54193;53.746;10.058;2022-10-16T03:15:02;13.25;;;2.63;;
67278;SDS011;54193;53.746;10.058;2022-10-16T03:17:48;6.10;;;2.38;;
67278;SDS011;54193;53.746;10.058;2022-10-16T03:20:34;4.78;;;1.90;;
67278;SDS011;54193;53.746;10.058;2022-10-16T03:23:19;6.20;;;2.15;;
67278;SDS011;54193;53.746;10.058;2022-10-16T03:26:05;6.20;;;2.13;;
67278;SDS011;54193;53.746;10.058;2022-10-16T03:28:51;6.50;;;2.20;;
67278;SDS011;54193;53.746;10.058;2022-10-16T03:31:36;6.40;;;2.03;;
67278;SDS011;54193;53.746;10.058;2022-10-16T03:34:22;5.10;;;1.95;;
67278;SDS011;54193;53.746;10.058;2022-10-16T03:37:07;4.45;;;1.95;;
67278;SDS011;54193;53.746;10.058;2022-10-16T03:39:53;4.77;;;1.97;;
67278;SDS011;54193;53.746;10.058;2022-10-16T03:42:39;4.78;;;1.85;;
67278;SDS011;54193;53.746;10.058;2022-10-16T03:45:24;5.95;;;2.00;;
67278;SDS011;54193;53.746;10.058;2022-10-16T03:48:10;5.65;;;1.90;;
67278;SDS011;54193;53.746;10.058;2022-10-16T03:50:56;5.35;;;2.15;;
67278;SDS011;54193;53.746;10.058;2022-10-16T03:53:41;6.93;;;2.10;;
67278;SDS011;54193;53.746;10.058;2022-10-16T03:56:27;4.00;;;1.85;;
67278;SDS011;54193;53.746;10.058;2022-10-16T03:59:13;7.18;;;2.22;;
67278;SDS011;54193;53.746;10.058;2022-10-16T04:01:58;4.70;;;2.10;;
67278;SDS011;54193;53.746;10.058;2022-10-16T04:04:44;6.75;;;2.28;;
67278;SDS011;54193;53.746;10.058;2022-10-16T04:07:29;5.17;;;1.90;;
67278;SDS011;54193;53.746;10.058;2022-10-16T04:10:15;4.72;;;2.13;;
67278;SDS011;54193;53.746;10.058;2022-10-16T04:13:01;5.75;;;2.30;;
67278;SDS011;54193;53.746;10.058;2022-10-16T04:15:47;7.57;;;2.10;;
67278;SDS011;54193;53.746;10.058;2022-10-16T04:18:32;5.72;;;1.67;;
67278;SDS011;54193;53.746;10.058;2022-10-16T04:21:18;4.53;;;1.83;;
67278;SDS011;54193;53.746;10.058;2022-10-16T04:24:03;5.03;;;1.80;;
67278;SDS011;54193;53.746;10.058;2022-10-16T04:26:49;5.32;;;2.20;;
67278;SDS011;54193;53.746;10.058;2022-10-16T04:29:35;4.25;;;1.83;;
67278;SDS011;54193;53.746;10.058;2022-10-16T04:32:20;4.65;;;1.70;;
67278;SDS011;54193;53.746;10.058;2022-10-16T04:35:06;4.73;;;1.60;;
67278;SDS011;54193;53.746;10.058;2022-10-16T04:37:52;4.72;;;1.80;;
67278;SDS011;54193;53.746;10.058;2022-10-16T04:40:38;4.32;;;1.67;;
67278;SDS011;54193;53.746;10.058;2022-10-16T04:43:24;4.97;;;1.63;;
67278;SDS011;54193;53.746;10.058;2022-10-16T04:46:09;5.18;;;2.00;;
67278;SDS011;54193;53.746;10.058;2022-10-16T04:48:55;7.17;;;2.13;;
67278;SDS011;54193;53.746;10.058;2022-10-16T04:51:41;4.95;;;1.77;;
67278;SDS011;54193;53.746;10.058;2022-10-16T04:54:26;3.72;;;1.33;;
67278;SDS011;54193;53.746;10.058;2022-10-16T04:57:12;7.75;;;1.80;;
67278;SDS011;54193;53.746;10.058;2022-10-16T04:59:58;4.00;;;1.58;;
67278;SDS011;54193;53.746;10.058;2022-10-16T05:02:43;6.07;;;2.00;;
67278;SDS011;54193;53.746;10.058;2022-10-16T05:05:29;4.55;;;1.67;;
67278;SDS011;54193;53.746;10.058;2022-10-16T05:08:15;4.95;;;1.80;;
67278;SDS011;54193;53.746;10.058;2022-10-16T05:11:01;4.50;;;2.17;;
67278;SDS011;54193;53.746;10.058;2022-10-16T05:13:47;4.90;;;2.08;;
67278;SDS011;54193;53.746;10.058;2022-10-16T05:16:32;4.43;;;1.90;;
67278;SDS011;54193;53.746;10.058;2022-10-16T05:19:18;7.88;;;1.80;;
67278;SDS011;54193;53.746;10.058;2022-10-16T05:22:04;6.75;;;2.22;;
67278;SDS011;54193;53.746;10.058;2022-10-16T05:24:49;5.13;;;2.05;;
67278;SDS011;54193;53.746;10.058;2022-10-16T05:27:35;4.75;;;2.00;;
67278;SDS011;54193;53.746;10.058;2022-10-16T05:30:20;3.90;;;1.70;;
67278;SDS011;54193;53.746;10.058;2022-10-16T05:33:06;10.93;;;2.28;;
67278;SDS011;54193;53.746;10.058;2022-10-16T05:35:52;6.95;;;3.08;;
67278;SDS011;54193;53.746;10.058;2022-10-16T05:38:37;5.68;;;2.22;;
67278;SDS011;54193;53.746;10.058;2022-10-16T05:41:23;4.93;;;2.38;;
67278;SDS011;54193;53.746;10.058;2022-10-16T05:44:10;7.17;;;2.80;;
67278;SDS011;54193;53.746;10.058;2022-10-16T05:46:56;7.15;;;2.70;;
67278;SDS011;54193;53.746;10.058;2022-10-16T05:49:42;6.25;;;2.70;;
67278;SDS011;54193;53.746;10.058;2022-10-16T05:52:27;6.60;;;2.70;;
67278;SDS011;54193;53.746;10.058;2022-10-16T05:55:13;7.53;;;2.95;;
67278;SDS011;54193;53.746;10.058;2022-10-16T05:57:59;8.30;;;2.90;;
67278;SDS011;54193;53.746;10.058;2022-10-16T06:00:44;8.38;;;3.30;;
67278;SDS011;54193;53.746;10.058;2022-10-16T06:03:30;6.10;;;2.55;;
67278;SDS011;54193;53.746;10.058;2022-10-16T06:06:17;7.07;;;3.38;;
67278;SDS011;54193;53.746;10.058;2022-10-16T06:09:04;6.35;;;3.25;;
67278;SDS011;54193;53.746;10.058;2022-10-16T06:11:50;9.73;;;3.23;;
67278;SDS011;54193;53.746;10.058;2022-10-16T06:14:36;7.95;;;3.30;;
67278;SDS011;54193;53.746;10.058;2022-10-16T06:17:21;11.18;;;3.30;;
67278;SDS011;54193;53.746;10.058;2022-10-16T06:20:07;8.48;;;3.08;;
67278;SDS011;54193;53.746;10.058;2022-10-16T06:22:53;6.97;;;2.78;;
67278;SDS011;54193;53.746;10.058;2022-10-16T06:25:43;6.95;;;2.75;;
67278;SDS011;54193;53.746;10.058;2022-10-16T06:28:29;7.05;;;3.00;;
67278;SDS011;54193;53.746;10.058;2022-10-16T06:31:15;7.90;;;2.80;;
67278;SDS011;54193;53.746;10.058;2022-10-16T06:34:01;8.77;;;2.87;;
67278;SDS011;54193;53.746;10.058;2022-10-16T06:36:48;7.50;;;3.00;;
67278;SDS011;54193;53.746;10.058;2022-10-16T06:39:34;6.38;;;2.65;;
67278;SDS011;54193;53.746;10.058;2022-10-16T06:42:19;6.63;;;2.85;;
67278;SDS011;54193;53.746;10.058;2022-10-16T06:45:05;6.15;;;2.58;;
67278;SDS011;54193;53.746;10.058;2022-10-16T06:47:51;10.17;;;3.10;;
67278;SDS011;54193;53.746;10.058;2022-10-16T06:50:37;7.05;;;2.70;;
67278;SDS011;54193;53.746;10.058;2022-10-16T06:53:22;7.45;;;2.55;;
67278;SDS011;54193;53.746;10.058;2022-10-16T06:56:12;11.80;;;2.85;;
67278;SDS011;54193;53.746;10.058;2022-10-16T06:59:00;7.55;;;2.65;;
67278;SDS011;54193;53.746;10.058;2022-10-16T07:01:46;7.30;;;2.83;;
67278;SDS011;54193;53.746;10.058;2022-10-16T07:04:32;8.10;;;2.70;;
67278;SDS011;54193;53.746;10.058;2022-10-16T07:07:17;8.88;;;3.38;;
67278;SDS011;54193;53.746;10.058;2022-10-16T07:10:03;6.57;;;2.70;;
67278;SDS011;54193;53.746;10.058;2022-10-16T07:12:49;6.47;;;2.55;;
67278;SDS011;54193;53.746;10.058;2022-10-16T07:15:35;7.03;;;2.60;;
67278;SDS011;54193;53.746;10.058;2022-10-16T07:18:20;5.95;;;2.53;;
67278;SDS011;54193;53.746;10.058;2022-10-16T07:21:12;7.53;;;2.60;;
67278;SDS011;54193;53.746;10.058;2022-10-16T07:24:00;6.10;;;2.70;;
67278;SDS011;54193;53.746;10.058;2022-10-16T07:26:46;6.07;;;2.63;;
67278;SDS011;54193;53.746;10.058;2022-10-16T07:29:32;8.37;;;2.60;;
67278;SDS011;54193;53.746;10.058;2022-10-16T07:32:18;5.80;;;2.60;;
67278;SDS011;54193;53.746;10.058;2022-10-16T07:35:03;6.10;;;2.63;;
67278;SDS011;54193;53.746;10.058;2022-10-16T07:37:49;8.48;;;2.60;;
67278;SDS011;54193;53.746;10.058;2022-10-16T07:40:35;5.95;;;2.45;;
67278;SDS011;54193;53.746;10.058;2022-10-16T07:43:21;6.60;;;2.60;;
67278;SDS011;54193;53.746;10.058;2022-10-16T07:46:06;7.22;;;2.70;;
67278;SDS011;54193;53.746;10.058;2022-10-16T07:48:52;7.70;;;3.50;;
67278;SDS011;54193;53.746;10.058;2022-10-16T07:51:38;8.43;;;2.92;;
67278;SDS011;54193;53.746;10.058;2022-10-16T07:54:24;8.05;;;2.90;;
67278;SDS011;54193;53.746;10.058;2022-10-16T07:57:10;5.83;;;2.90;;
67278;SDS011;54193;53.746;10.058;2022-10-16T07:59:55;7.13;;;3.17;;
67278;SDS011;54193;53.746;10.058;2022-10-16T08:02:41;5.57;;;2.90;;
67278;SDS011;54193;53.746;10.058;2022-10-16T08:05:27;6.85;;;2.80;;
67278;SDS011;54193;53.746;10.058;2022-10-16T08:08:14;7.07;;;2.75;;
67278;SDS011;54193;53.746;10.058;2022-10-16T08:11:01;7.23;;;2.90;;
67278;SDS011;54193;53.746;10.058;2022-10-16T08:13:49;4.72;;;2.67;;
67278;SDS011;54193;53.746;10.058;2022-10-16T08:16:34;7.28;;;3.22;;
67278;SDS011;54193;53.746;10.058;2022-10-16T08:19:20;6.32;;;3.25;;
67278;SDS011;54193;53.746;10.058;2022-10-16T08:22:05;6.72;;;2.90;;
67278;SDS011;54193;53.746;10.058;2022-10-16T08:24:51;6.67;;;2.97;;
67278;SDS011;54193;53.746;10.058;2022-10-16T08:27:38;6.90;;;3.00;;
67278;SDS011;54193;53.746;10.058;2022-10-16T08:30:23;6.90;;;2.80;;
67278;SDS011;54193;53.746;10.058;2022-10-16T08:33:09;11.40;;;3.55;;
67278;SDS011;54193;53.746;10.058;2022-10-16T08:35:55;6.85;;;3.17;;
67278;SDS011;54193;53.746;10.058;2022-10-16T08:38:41;6.73;;;3.03;;
67278;SDS011;54193;53.746;10.058;2022-10-16T08:50:45;6.82;;;2.92;;
67278;SDS011;54193;53.746;10.058;2022-10-16T08:56:27;5.30;;;2.83;;
67278;SDS011;54193;53.746;10.058;2022-10-16T08:59:13;7.47;;;2.83;;
67278;SDS011;54193;53.746;10.058;2022-10-16T09:02:01;6.78;;;2.83;;
67278;SDS011;54193;53.746;10.058;2022-10-16T09:04:50;6.72;;;2.70;;
67278;SDS011;54193;53.746;10.058;2022-10-16T09:07:49;6.13;;;2.80;;
67278;SDS011;54193;53.746;10.058;2022-10-16T09:14:02;5.82;;;2.50;;
67278;SDS011;54193;53.746;10.058;2022-10-16T09:20:24;4.90;;;2.65;;
67278;SDS011;54193;53.746;10.058;2022-10-16T09:23:17;7.45;;;2.58;;
67278;SDS011;54193;53.746;10.058;2022-10-16T09:26:14;4.93;;;1.90;;
67278;SDS011;54193;53.746;10.058;2022-10-16T09:29:01;5.80;;;2.47;;
67278;SDS011;54193;53.746;10.058;2022-10-16T09:31:48;7.55;;;2.55;;
67278;SDS011;54193;53.746;10.058;2022-10-16T09:34:34;5.20;;;2.28;;
67278;SDS011;54193;53.746;10.058;2022-10-16T09:37:22;5.38;;;2.20;;
67278;SDS011;54193;53.746;10.058;2022-10-16T09:40:13;6.00;;;1.90;;
67278;SDS011;54193;53.746;10.058;2022-10-16T09:43:23;5.60;;;2.22;;
67278;SDS011;54193;53.746;10.058;2022-10-16T09:46:27;6.13;;;1.92;;
67278;SDS011;54193;53.746;10.058;2022-10-16T09:52:11;5.85;;;2.22;;
67278;SDS011;54193;53.746;10.058;2022-10-16T09:54:59;5.43;;;2.10;;
67278;SDS011;54193;53.746;10.058;2022-10-16T09:57:58;6.75;;;2.20;;
67278;SDS011;54193;53.746;10.058;2022-10-16T10:00:50;9.32;;;2.08;;
67278;SDS011;54193;53.746;10.058;2022-10-16T10:03:39;7.25;;;1.98;;
67278;SDS011;54193;53.746;10.058;2022-10-16T10:06:28;5.40;;;1.83;;
67278;SDS011;54193;53.746;10.058;2022-10-16T10:12:24;5.95;;;1.90;;
67278;SDS011;54193;53.746;10.058;2022-10-16T10:15:12;4.82;;;1.90;;
67278;SDS011;54193;53.746;10.058;2022-10-16T10:18:15;5.93;;;2.25;;
67278;SDS011;54193;53.746;10.058;2022-10-16T10:21:03;6.18;;;1.95;;
67278;SDS011;54193;53.746;10.058;2022-10-16T10:23:57;5.87;;;1.83;;
67278;SDS011;54193;53.746;10.058;2022-10-16T10:26:46;4.07;;;1.50;;
67278;SDS011;54193;53.746;10.058;2022-10-16T10:32:53;7.13;;;1.73;;
67278;SDS011;54193;53.746;10.058;2022-10-16T10:38:58;4.53;;;1.50;;
67278;SDS011;54193;53.746;10.058;2022-10-16T10:44:47;4.07;;;1.20;;
67278;SDS011;54193;53.746;10.058;2022-10-16T10:50:43;7.13;;;1.90;;
67278;SDS011;54193;53.746;10.058;2022-10-16T10:53:50;3.53;;;1.33;;
67278;SDS011;54193;53.746;10.058;2022-10-16T10:56:45;3.75;;;1.23;;
67278;SDS011;54193;53.746;10.058;2022-10-16T10:59:41;6.13;;;1.80;;
67278;SDS011;54193;53.746;10.058;2022-10-16T11:08:35;5.83;;;1.50;;
67278;SDS011;54193;53.746;10.058;2022-10-16T11:11:25;7.00;;;1.60;;
67278;SDS011;54193;53.746;10.058;2022-10-16T11:14:19;4.90;;;1.42;;
67278;SDS011;54193;53.746;10.058;2022-10-16T11:17:13;4.70;;;1.33;;
67278;SDS011;54193;53.746;10.058;2022-10-16T11:23:04;5.07;;;1.50;;
67278;SDS011;54193;53.746;10.058;2022-10-16T11:26:12;7.38;;;1.83;;
67278;SDS011;54193;53.746;10.058;2022-10-16T11:29:02;6.80;;;1.50;;
67278;SDS011;54193;53.746;10.058;2022-10-16T11:31:54;4.60;;;1.50;;
67278;SDS011;54193;53.746;10.058;2022-10-16T11:34:50;5.15;;;1.30;;
67278;SDS011;54193;53.746;10.058;2022-10-16T11:37:40;2.73;;;1.17;;
67278;SDS011;54193;53.746;10.058;2022-10-16T11:40:29;3.15;;;1.08;;
67278;SDS011;54193;53.746;10.058;2022-10-16T11:43:22;5.90;;;1.38;;
67278;SDS011;54193;53.746;10.058;2022-10-16T11:46:18;5.30;;;1.30;;
67278;SDS011;54193;53.746;10.058;2022-10-16T11:49:08;5.20;;;1.45;;
67278;SDS011;54193;53.746;10.058;2022-10-16T11:52:19;3.90;;;1.30;;
67278;SDS011;54193;53.746;10.058;2022-10-16T11:55:15;5.40;;;1.30;;
67278;SDS011;54193;53.746;10.058;2022-10-16T11:58:23;4.70;;;1.38;;
67278;SDS011;54193;53.746;10.058;2022-10-16T12:04:19;4.43;;;1.50;;
67278;SDS011;54193;53.746;10.058;2022-10-16T12:07:13;6.40;;;1.30;;
67278;SDS011;54193;53.746;10.058;2022-10-16T12:10:11;5.68;;;1.45;;
67278;SDS011;54193;53.746;10.058;2022-10-16T12:13:25;6.97;;;1.50;;
67278;SDS011;54193;53.746;10.058;2022-10-16T12:16:23;3.72;;;1.30;;
67278;SDS011;54193;53.746;10.058;2022-10-16T12:19:10;4.85;;;1.38;;
67278;SDS011;54193;53.746;10.058;2022-10-16T12:22:01;4.37;;;1.50;;
67278;SDS011;54193;53.746;10.058;2022-10-16T12:24:50;4.97;;;1.42;;
67278;SDS011;54193;53.746;10.058;2022-10-16T12:27:37;3.75;;;1.48;;
67278;SDS011;54193;53.746;10.058;2022-10-16T12:30:23;3.75;;;1.30;;
67278;SDS011;54193;53.746;10.058;2022-10-16T12:36:26;4.47;;;1.30;;
67278;SDS011;54193;53.746;10.058;2022-10-16T12:39:20;6.80;;;1.40;;
67278;SDS011;54193;53.746;10.058;2022-10-16T12:42:22;5.88;;;1.20;;
67278;SDS011;54193;53.746;10.058;2022-10-16T12:48:18;3.58;;;1.05;;
67278;SDS011;54193;53.746;10.058;2022-10-16T12:51:10;4.70;;;1.00;;
67278;SDS011;54193;53.746;10.058;2022-10-16T12:54:12;5.03;;;1.20;;
67278;SDS011;54193;53.746;10.058;2022-10-16T12:57:05;4.35;;;1.10;;
67278;SDS011;54193;53.746;10.058;2022-10-16T13:00:13;8.30;;;1.55;;
67278;SDS011;54193;53.746;10.058;2022-10-16T13:09:40;5.07;;;1.00;;
67278;SDS011;54193;53.746;10.058;2022-10-16T13:12:42;5.63;;;1.27;;
67278;SDS011;54193;53.746;10.058;2022-10-16T13:25:30;4.45;;;1.20;;
67278;SDS011;54193;53.746;10.058;2022-10-16T13:27:54;5.60;;;1.40;;
67278;SDS011;54193;53.746;10.058;2022-10-16T13:30:43;4.60;;;1.08;;
67278;SDS011;54193;53.746;10.058;2022-10-16T13:33:39;5.88;;;2.55;;
67278;SDS011;54193;53.746;10.058;2022-10-16T13:36:28;5.67;;;1.37;;
67278;SDS011;54193;53.746;10.058;2022-10-16T13:39:29;6.18;;;1.58;;
67278;SDS011;54193;53.746;10.058;2022-10-16T13:45:17;5.35;;;1.30;;
67278;SDS011;54193;53.746;10.058;2022-10-16T13:48:09;4.70;;;1.30;;
67278;SDS011;54193;53.746;10.058;2022-10-16T13:51:12;7.23;;;1.63;;
67278;SDS011;54193;53.746;10.058;2022-10-16T13:53:59;3.83;;;1.45;;
67278;SDS011;54193;53.746;10.058;2022-10-16T13:56:45;6.32;;;1.60;;
67278;SDS011;54193;53.746;10.058;2022-10-16T13:59:35;4.03;;;1.20;;
67278;SDS011;54193;53.746;10.058;2022-10-16T14:02:31;3.28;;;1.27;;
67278;SDS011;54193;53.746;10.058;2022-10-16T14:05:23;6.23;;;1.40;;
67278;SDS011;54193;53.746;10.058;2022-10-16T14:08:09;9.45;;;2.25;;
67278;SDS011;54193;53.746;10.058;2022-10-16T14:10:57;6.80;;;1.40;;
67278;SDS011;54193;53.746;10.058;2022-10-16T14:13:45;3.83;;;1.17;;
67278;SDS011;54193;53.746;10.058;2022-10-16T14:16:32;6.15;;;1.30;;
67278;SDS011;54193;53.746;10.058;2022-10-16T14:19:21;6.30;;;1.30;;
67278;SDS011;54193;53.746;10.058;2022-10-16T14:22:21;5.95;;;1.10;;
67278;SDS011;54193;53.746;10.058;2022-10-16T14:28:19;8.27;;;1.33;;
67278;SDS011;54193;53.746;10.058;2022-10-16T14:34:21;4.97;;;0.97;;
67278;SDS011;54193;53.746;10.058;2022-10-16T14:37:20;7.20;;;1.50;;
67278;SDS011;54193;53.746;10.058;2022-10-16T14:40:13;5.65;;;1.20;;
67278;SDS011;54193;53.746;10.058;2022-10-16T14:43:00;3.97;;;1.52;;
67278;SDS011;54193;53.746;10.058;2022-10-16T14:45:50;4.53;;;1.00;;
67278;SDS011;54193;53.746;10.058;2022-10-16T14:48:41;6.07;;;1.23;;
67278;SDS011;54193;53.746;10.058;2022-10-16T14:51:28;5.30;;;1.15;;
67278;SDS011;54193;53.746;10.058;2022-10-16T14:54:15;5.93;;;1.23;;
67278;SDS011;54193;53.746;10.058;2022-10-16T14:57:02;5.95;;;1.48;;
67278;SDS011;54193;53.746;10.058;2022-10-16T14:59:48;4.53;;;1.20;;
67278;SDS011;54193;53.746;10.058;2022-10-16T15:02:36;5.40;;;1.23;;
67278;SDS011;54193;53.746;10.058;2022-10-16T15:05:22;5.38;;;2.10;;
67278;SDS011;54193;53.746;10.058;2022-10-16T15:08:11;9.93;;;5.65;;
67278;SDS011;54193;53.746;10.058;2022-10-16T15:10:57;4.22;;;1.75;;
67278;SDS011;54193;53.746;10.058;2022-10-16T15:13:43;8.02;;;3.90;;
67278;SDS011;54193;53.746;10.058;2022-10-16T15:16:29;7.43;;;4.50;;
67278;SDS011;54193;53.746;10.058;2022-10-16T15:19:15;10.00;;;8.40;;
67278;SDS011;54193;53.746;10.058;2022-10-16T15:22:01;5.90;;;1.98;;
67278;SDS011;54193;53.746;10.058;2022-10-16T15:24:46;11.15;;;5.65;;
67278;SDS011;54193;53.746;10.058;2022-10-16T15:27:32;5.47;;;1.70;;
67278;SDS011;54193;53.746;10.058;2022-10-16T15:30:25;5.10;;;2.50;;
67278;SDS011;54193;53.746;10.058;2022-10-16T15:33:15;4.97;;;1.92;;
67278;SDS011;54193;53.746;10.058;2022-10-16T15:36:03;8.48;;;3.00;;
67278;SDS011;54193;53.746;10.058;2022-10-16T15:38:49;8.18;;;2.15;;
67278;SDS011;54193;53.746;10.058;2022-10-16T15:41:34;5.80;;;1.88;;
67278;SDS011;54193;53.746;10.058;2022-10-16T15:44:20;8.30;;;1.60;;
67278;SDS011;54193;53.746;10.058;2022-10-16T15:47:08;8.00;;;2.28;;
67278;SDS011;54193;53.746;10.058;2022-10-16T15:49:54;8.48;;;3.10;;
67278;SDS011;54193;53.746;10.058;2022-10-16T15:52:40;4.32;;;1.58;;
67278;SDS011;54193;53.746;10.058;2022-10-16T15:55:27;12.23;;;6.00;;
67278;SDS011;54193;53.746;10.058;2022-10-16T15:58:13;8.87;;;3.27;;
67278;SDS011;54193;53.746;10.058;2022-10-16T16:00:59;10.25;;;2.88;;
67278;SDS011;54193;53.746;10.058;2022-10-16T16:03:52;7.97;;;2.47;;
67278;SDS011;54193;53.746;10.058;2022-10-16T16:06:38;6.07;;;2.38;;
67278;SDS011;54193;53.746;10.058;2022-10-16T16:09:29;6.22;;;2.30;;
67278;SDS011;54193;53.746;10.058;2022-10-16T16:12:15;6.20;;;2.00;;
67278;SDS011;54193;53.746;10.058;2022-10-16T16:15:00;6.28;;;1.50;;
67278;SDS011;54193;53.746;10.058;2022-10-16T16:17:47;9.35;;;2.00;;
67278;SDS011;54193;53.746;10.058;2022-10-16T16:20:32;6.47;;;1.70;;
67278;SDS011;54193;53.746;10.058;2022-10-16T16:23:18;8.90;;;1.80;;
67278;SDS011;54193;53.746;10.058;2022-10-16T16:26:15;6.97;;;1.90;;
67278;SDS011;54193;53.746;10.058;2022-10-16T16:29:11;7.28;;;1.95;;
67278;SDS011;54193;53.746;10.058;2022-10-16T16:31:59;8.57;;;2.30;;
67278;SDS011;54193;53.746;10.058;2022-10-16T16:34:45;11.88;;;4.35;;
67278;SDS011;54193;53.746;10.058;2022-10-16T16:37:30;7.43;;;2.70;;
67278;SDS011;54193;53.746;10.058;2022-10-16T16:40:16;7.13;;;3.10;;
67278;SDS011;54193;53.746;10.058;2022-10-16T16:43:02;7.40;;;2.38;;
67278;SDS011;54193;53.746;10.058;2022-10-16T16:45:49;6.85;;;2.30;;
67278;SDS011;54193;53.746;10.058;2022-10-16T16:48:34;5.63;;;2.20;;
67278;SDS011;54193;53.746;10.058;2022-10-16T16:51:20;4.80;;;1.90;;
67278;SDS011;54193;53.746;10.058;2022-10-16T16:54:06;5.70;;;2.00;;
67278;SDS011;54193;53.746;10.058;2022-10-16T16:56:52;6.00;;;1.80;;
67278;SDS011;54193;53.746;10.058;2022-10-16T16:59:38;6.28;;;1.90;;
67278;SDS011;54193;53.746;10.058;2022-10-16T17:02:24;8.43;;;2.20;;
67278;SDS011;54193;53.746;10.058;2022-10-16T17:05:10;5.18;;;2.10;;
67278;SDS011;54193;53.746;10.058;2022-10-16T17:07:56;8.80;;;2.40;;
67278;SDS011;54193;53.746;10.058;2022-10-16T17:10:42;6.03;;;2.00;;
67278;SDS011;54193;53.746;10.058;2022-10-16T17:13:29;10.15;;;2.20;;
67278;SDS011;54193;53.746;10.058;2022-10-16T17:16:20;6.57;;;2.40;;
67278;SDS011;54193;53.746;10.058;2022-10-16T17:19:07;6.25;;;2.30;;
67278;SDS011;54193;53.746;10.058;2022-10-16T17:21:55;5.93;;;2.10;;
67278;SDS011;54193;53.746;10.058;2022-10-16T17:24:41;5.20;;;2.25;;
67278;SDS011;54193;53.746;10.058;2022-10-16T17:27:27;5.13;;;2.15;;
67278;SDS011;54193;53.746;10.058;2022-10-16T17:30:12;11.82;;;2.60;;
67278;SDS011;54193;53.746;10.058;2022-10-16T17:32:58;6.07;;;2.70;;
67278;SDS011;54193;53.746;10.058;2022-10-16T17:35:45;5.63;;;2.27;;
67278;SDS011;54193;53.746;10.058;2022-10-16T17:38:31;8.63;;;2.53;;
67278;SDS011;54193;53.746;10.058;2022-10-16T17:41:21;7.88;;;2.47;;
67278;SDS011;54193;53.746;10.058;2022-10-16T17:44:09;7.00;;;2.75;;
67278;SDS011;54193;53.746;10.058;2022-10-16T17:46:57;6.72;;;2.50;;
67278;SDS011;54193;53.746;10.058;2022-10-16T17:49:43;7.87;;;2.70;;
67278;SDS011;54193;53.746;10.058;2022-10-16T17:52:28;6.50;;;2.40;;
67278;SDS011;54193;53.746;10.058;2022-10-16T17:55:14;6.55;;;2.25;;
67278;SDS011;54193;53.746;10.058;2022-10-16T17:58:00;5.47;;;2.20;;
67278;SDS011;54193;53.746;10.058;2022-10-16T18:00:46;5.70;;;2.47;;
67278;SDS011;54193;53.746;10.058;2022-10-16T18:03:32;7.30;;;2.70;;
67278;SDS011;54193;53.746;10.058;2022-10-16T18:06:17;7.45;;;2.65;;
67278;SDS011;54193;53.746;10.058;2022-10-16T18:09:04;7.22;;;2.70;;
67278;SDS011;54193;53.746;10.058;2022-10-16T18:11:52;7.60;;;3.65;;
67278;SDS011;54193;53.746;10.058;2022-10-16T18:14:44;10.60;;;4.32;;
67278;SDS011;54193;53.746;10.058;2022-10-16T18:17:30;13.30;;;7.03;;
67278;SDS011;54193;53.746;10.058;2022-10-16T18:20:17;14.32;;;7.35;;